Date,TemperatureHighF,TemperatureAvgF,TemperatureLowF,DewpointHighF,DewpointAvgF,DewpointLowF,HumidityHigh,HumidityAvg,HumidityLow,PressureMaxIn,PressureMinIn,WindSpeedMaxMPH,WindSpeedAvgMPH,GustSpeedMaxMPH,PrecipitationSumIn
2013-1-1,47.2,42.3,37.9,39.8,35.5,29.6,93,77,60,30.03,29.90,3,0,6,0.02
2013-1-2,42.4,36.8,30.4,36.1,31.3,23.9,96,81,62,30.22,29.98,4,0,7,0.04
2013-1-3,39.2,31.9,25.5,26.4,22.5,19.4,87,69,52,30.26,30.17,4,0,6,0.00
2013-1-4,47.1,35.4,25.0,27.4,23.8,20.3,90,64,41,30.24,30.13,7,1,11,0.00
2013-1-5,48.2,36.0,23.5,31.4,24.4,19.9,88,64,38,30.37,30.19,3,0,5,0.00
2013-1-6,53.4,43.4,33.7,37.4,32.8,30.5,90,68,44,30.21,30.02,5,1,8,0.01
2013-1-7,47.5,38.9,28.5,33.2,29.8,25.7,89,71,51,30.44,30.14,5,1,9,0.00
2013-1-8,49.7,38.5,27.2,37.5,32.1,25.5,94,79,60,30.46,30.37,4,0,10,0.00
2013-1-9,61.8,47.4,30.0,51.5,42.0,28.7,96,83,67,30.40,30.26,8,1,12,0.00
2013-1-10,59.6,45.4,32.1,46.5,35.5,30.5,97,72,34,30.58,30.37,3,0,5,0.00
2013-1-11,45.1,40.9,33.2,44.3,38.6,30.2,97,92,80,30.49,30.10,3,0,7,0.13
2013-1-12,48.9,46.3,43.3,48.0,45.5,42.5,98,97,96,30.17,30.10,5,0,5,0.01
2013-1-13,68.6,56.5,47.8,63.0,55.1,47.0,98,95,81,30.12,29.99,4,0,9,0.02
2013-1-14,63.2,55.6,42.5,61.9,53.9,40.9,97,94,90,30.25,29.99,6,2,12,0.31
2013-1-15,41.5,39.8,38.0,40.5,38.9,37.2,97,97,94,30.31,30.13,5,1,8,0.66
2013-1-16,43.5,39.7,36.2,42.7,38.9,35.4,97,97,96,30.12,29.89,4,1,8,0.31
2013-1-17,44.3,39.2,32.5,43.6,38.4,31.6,98,97,95,30.13,29.97,2,0,5,0.62
2013-1-18,39.2,32.6,28.1,32.0,28.2,22.6,97,85,52,30.51,30.09,6,1,8,0.33
2013-1-19,53.0,38.4,26.8,35.9,29.2,24.0,89,71,45,30.47,30.07,8,2,13,0.00
2013-1-20,61.3,46.2,34.6,38.9,30.3,22.2,74,56,31,30.06,29.86,11,3,16,0.00
2013-1-21,52.9,38.6,25.2,30.5,23.5,14.3,82,57,31,30.09,29.78,8,1,13,0.00
2013-1-22,30.1,25.1,15.1,19.7,5.0,-3.1,77,44,25,30.30,29.92,9,3,15,0.00
2013-1-23,32.7,21.9,9.4,15.1,6.8,2.0,86,56,28,30.36,30.12,7,1,11,0.00
2013-1-24,29.6,22.4,13.6,20.1,12.4,3.1,92,68,35,30.54,30.04,11,2,19,0.01
2013-1-25,25.8,19.1,11.3,20.3,13.3,7.3,88,79,46,30.53,30.08,11,1,11,0.00
2013-1-26,41.6,29.8,20.5,28.5,23.8,18.5,93,79,57,30.43,30.08,4,1,8,0.03
2013-1-27,39.8,30.9,23.0,26.3,23.3,20.4,92,74,51,30.61,30.44,4,0,7,0.00
2013-1-28,52.7,41.4,30.6,45.8,36.1,24.6,96,82,68,30.50,30.10,10,2,15,0.22
2013-1-29,74.1,57.6,43.7,57.3,49.8,41.0,93,77,55,30.14,29.99,4,1,9,0.00
2013-1-30,70.7,66.5,60.6,64.1,60.7,54.8,92,82,74,29.98,29.26,12,4,17,0.06
2013-1-31,65.2,45.4,28.9,62.9,31.2,17.7,94,59,40,29.94,29.20,9,3,22,0.63
2013-2-1,34.5,29.3,17.1,26.3,12.3,4.1,76,51,30,30.39,29.78,12,3,21,0.00
2013-2-2,35.9,25.6,14.5,26.8,16.1,8.7,91,70,39,30.41,30.01,6,1,14,0.00
2013-2-3,39.8,31.9,23.5,30.4,25.9,20.0,95,79,55,30.00,29.83,9,1,12,0.01
2013-2-4,39.2,31.2,20.6,26.4,20.1,15.7,87,64,48,30.14,29.92,5,1,10,0.00
2013-2-5,58.1,45.2,35.8,38.0,32.0,25.6,81,61,45,29.92,29.82,7,1,13,0.00
2013-2-6,54.7,40.1,27.0,36.7,30.9,25.2,94,72,42,30.27,29.91,4,1,9,0.00
2013-2-7,42.8,36.9,26.4,34.6,29.5,24.3,92,75,58,30.43,30.16,4,0,7,0.01
2013-2-8,46.1,39.9,34.8,41.3,35.8,26.4,96,86,59,30.15,29.74,8,2,13,0.29
2013-2-9,48.0,36.6,25.4,26.6,21.4,17.3,76,56,31,30.38,29.93,12,3,16,0.00
2013-2-10,41.9,30.3,20.7,29.8,20.7,16.4,88,69,45,30.50,30.25,5,0,7,0.00
2013-2-11,57.8,47.7,37.9,54.9,44.9,29.9,97,90,66,30.25,29.77,9,3,14,0.12
2013-2-12,58.5,49.5,40.3,45.3,32.0,27.8,78,52,34,30.00,29.81,5,1,13,0.00
2013-2-13,45.9,40.0,35.7,40.3,35.6,31.1,96,84,70,29.92,29.63,4,1,11,0.09
2013-2-14,50.8,38.1,27.5,39.5,31.7,26.5,97,80,41,30.04,29.78,5,1,10,0.00
2013-2-15,62.8,45.6,29.9,40.4,33.2,28.4,95,67,30,30.06,29.88,11,2,12,0.00
2013-2-16,38.8,34.9,30.0,36.1,31.9,19.3,96,89,63,30.02,29.83,5,1,10,0.14
2013-2-17,33.4,28.1,21.5,19.9,11.3,4.7,74,50,30,30.23,29.85,17,3,20,0.00
2013-2-18,47.3,31.4,15.7,22.2,13.2,7.3,81,50,24,30.41,30.20,5,1,11,0.00
2013-2-19,47.0,41.0,34.8,45.2,34.1,21.5,95,78,47,30.20,29.76,10,2,14,0.16
2013-2-20,46.8,37.3,28.0,32.8,20.6,15.6,93,52,33,30.15,29.87,8,1,14,0.00
2013-2-21,43.6,32.6,23.4,21.0,18.0,14.8,71,56,37,30.31,30.13,8,1,12,0.00
2013-2-22,38.1,33.7,31.1,32.5,26.1,18.7,91,74,59,30.37,30.21,3,0,7,0.03
2013-2-23,43.0,38.3,34.3,42.1,37.1,32.4,97,95,91,30.20,29.81,3,1,9,0.08
2013-2-24,57.8,45.2,32.2,44.2,37.0,23.5,97,76,40,30.10,29.80,6,1,13,0.00
2013-2-25,45.0,35.1,25.6,25.7,22.6,18.9,82,62,42,30.23,30.10,4,1,8,0.00
2013-2-26,48.8,37.7,26.3,48.0,35.6,22.8,97,92,82,30.21,29.57,7,1,15,0.64
2013-2-27,59.3,48.2,39.8,47.8,41.5,34.2,97,80,49,29.70,29.54,7,1,14,0.01
2013-2-28,49.3,42.6,37.7,38.1,32.3,26.3,89,68,42,29.75,29.62,7,2,13,0.00
2013-3-1,45.4,39.4,30.3,31.7,28.0,25.1,87,64,51,29.89,29.75,9,2,14,0.00
2013-3-2,38.8,34.8,27.1,25.9,24.0,21.6,83,65,56,29.90,29.83,7,2,11,0.00
2013-3-3,43.9,33.9,25.1,24.4,20.9,17.8,84,60,41,29.93,29.80,9,2,15,0.00
2013-3-4,48.4,33.6,22.1,21.1,18.2,15.8,79,56,31,30.05,29.93,7,2,13,0.00
2013-3-5,50.0,36.3,23.1,34.7,24.4,18.0,95,66,35,30.09,29.74,7,1,8,0.12
2013-3-6,37.7,34.6,32.6,35.2,32.9,31.3,96,94,80,29.98,29.45,18,4,26,1.62
2013-3-7,47.5,40.5,32.3,31.8,28.8,26.3,85,64,46,30.17,29.98,15,3,20,0.24
2013-3-8,47.9,41.0,36.0,30.9,28.5,25.9,72,61,50,30.26,30.14,12,2,22,0.00
2013-3-9,60.5,44.6,31.6,31.1,28.1,24.9,80,56,26,30.33,30.24,0,0,0,0.00
2013-3-10,64.8,46.6,26.7,36.8,27.0,20.7,93,54,19,30.33,30.21,0,0,0,0.00
2013-3-11,67.1,53.4,40.9,52.9,46.0,37.2,96,77,57,30.24,29.94,0,0,0,0.00
2013-3-12,66.0,57.6,41.1,63.1,52.2,34.1,97,82,67,29.94,29.72,0,0,0,0.43
2013-3-13,53.3,41.3,29.7,36.8,29.3,18.2,95,65,39,30.08,29.91,0,0,0,0.01
2013-3-14,50.5,38.5,26.7,23.4,19.5,14.2,76,49,25,30.17,30.04,0,0,0,0.00
2013-3-15,58.6,42.9,27.5,37.0,27.3,18.0,77,55,37,30.12,29.81,0,0,0,0.00
2013-3-16,68.7,51.8,43.3,57.7,45.1,34.1,95,79,57,29.86,29.59,0,0,0,0.50
2013-3-17,43.3,37.5,34.3,40.6,35.8,33.0,95,94,90,30.27,29.86,0,0,0,0.23
2013-3-18,35.5,33.5,32.4,34.5,32.5,31.2,97,96,95,30.30,29.89,0,0,0,0.44
2013-3-19,63.7,44.9,33.6,45.1,31.0,8.9,97,69,17,29.95,29.72,0,0,0,0.11
2013-3-20,56.4,45.1,30.9,24.6,17.7,9.0,54,34,23,30.03,29.74,0,0,0,0.00
2013-3-21,45.8,36.4,27.8,27.7,19.5,10.2,81,52,34,29.93,29.73,0,0,0,0.00
2013-3-22,49.7,35.2,23.2,24.0,18.1,12.7,67,51,32,30.01,29.90,0,0,0,0.00
2013-3-23,55.8,39.7,23.6,28.9,23.0,19.4,88,55,25,30.06,29.91,0,0,0,0.00
2013-3-24,41.6,35.2,31.0,31.2,27.8,23.4,95,75,57,29.99,29.62,0,0,0,0.02
2013-3-25,38.1,34.9,32.4,36.2,33.3,31.1,96,94,89,29.71,29.52,0,0,0,0.44
2013-3-26,50.1,39.7,30.3,36.2,30.7,28.0,95,73,45,30.02,29.71,0,0,0,0.00
2013-3-27,53.0,40.6,30.1,31.6,27.0,23.2,87,61,39,30.15,30.02,0,0,0,0.00
2013-3-28,52.7,42.0,30.4,31.0,27.5,24.2,79,58,39,30.25,30.12,0,0,0,0.00
2013-3-29,57.5,45.0,34.0,34.5,30.5,26.8,86,59,34,30.28,30.15,0,0,0,0.00
2013-3-30,63.3,47.8,30.7,36.7,31.5,27.9,93,58,27,30.23,30.09,0,0,0,0.00
2013-3-31,54.6,48.8,44.9,51.9,43.2,32.2,95,82,59,30.10,29.74,0,0,0,0.10
2013-4-1,70.3,53.2,39.1,50.2,41.1,27.9,97,68,37,29.97,29.74,0,0,0,0.01
2013-4-2,55.7,43.3,28.1,28.4,21.7,12.6,86,46,20,30.16,29.97,0,0,0,0.00
2013-4-3,56.4,41.4,25.0,26.7,19.1,13.5,84,46,21,30.37,30.16,0,0,0,0.00
2013-4-4,50.9,38.0,25.6,35.0,23.1,17.1,94,59,29,30.43,30.07,0,0,0,0.32
2013-4-5,64.5,48.7,36.2,44.1,35.5,29.8,96,67,28,30.06,29.84,0,0,0,0.36
2013-4-6,59.2,48.8,36.2,33.6,26.7,21.5,67,44,24,30.31,30.01,0,0,0,0.00
2013-4-7,71.4,54.6,34.9,45.8,39.2,30.7,89,59,37,30.29,30.01,0,0,0,0.00
2013-4-8,82.0,67.0,52.4,54.7,49.8,43.5,79,56,35,30.08,29.96,0,0,0,0.00
2013-4-9,86.1,72.8,57.7,59.7,55.3,51.8,84,56,36,30.09,29.96,0,0,0,0.00
2013-4-10,89.9,77.1,63.4,62.7,58.7,56.0,82,55,34,29.99,29.80,0,0,0,0.00
2013-4-11,85.6,74.1,60.5,64.8,60.0,55.8,90,63,42,29.86,29.73,0,0,1,0.00
2013-4-12,81.0,72.1,64.6,70.7,62.6,44.6,95,74,40,29.73,29.54,0,0,0,0.42
2013-4-13,72.2,60.1,43.7,57.6,45.0,40.4,94,60,34,29.92,29.67,0,0,0,0.00
2013-4-14,73.5,59.0,40.1,46.1,41.3,36.3,93,55,32,30.10,29.92,0,0,0,0.00
2013-4-15,67.2,57.4,50.7,55.9,50.4,39.6,95,78,48,30.26,30.08,0,0,0,0.02
2013-4-16,77.5,64.6,51.6,62.4,57.0,49.9,96,78,54,30.30,30.15,0,0,0,0.00
2013-4-17,82.4,70.1,59.2,64.4,60.8,56.7,94,74,51,30.18,30.10,0,0,0,0.00
2013-4-18,80.5,68.5,58.5,66.2,60.0,56.6,96,76,49,30.19,30.00,0,0,0,0.00
2013-4-19,82.0,70.3,63.8,69.1,64.0,59.4,95,81,63,30.00,29.62,17,2,27,0.58
2013-4-20,64.3,54.5,42.8,62.8,40.5,31.0,95,63,31,30.29,29.70,11,2,21,0.01
2013-4-21,57.6,46.6,35.5,36.1,32.3,27.5,85,60,32,30.56,30.30,5,1,15,0.00
2013-4-22,59.2,46.5,31.2,43.2,38.1,29.7,95,74,50,30.54,30.36,7,1,17,0.00
2013-4-23,62.3,51.5,45.1,49.7,44.9,42.3,91,79,59,30.35,30.12,5,1,10,0.00
2013-4-24,78.9,61.0,42.9,59.8,51.9,41.3,97,75,47,30.12,29.85,18,4,27,0.00
2013-4-25,66.2,56.5,44.7,57.4,41.5,35.0,86,59,32,30.27,29.93,8,2,24,0.01
2013-4-26,68.9,53.7,35.9,47.8,40.7,34.6,96,66,31,30.45,30.27,7,1,11,0.00
2013-4-27,72.1,58.3,43.8,49.5,43.8,39.9,94,62,33,30.40,30.26,7,1,12,0.00
2013-4-28,65.1,55.9,45.2,50.7,45.2,39.0,91,69,42,30.28,30.14,8,1,15,0.01
2013-4-29,62.0,57.2,52.6,60.8,56.0,50.8,97,96,92,30.15,29.99,7,1,8,0.64
2013-4-30,63.2,58.2,54.3,60.3,56.5,53.2,97,94,88,30.23,30.05,4,0,6,0.05
2013-5-1,70.4,59.4,52.6,55.7,50.8,44.4,96,76,46,30.38,30.23,5,1,14,0.00
2013-5-2,67.6,55.3,47.6,53.2,50.1,46.2,95,84,58,30.41,30.30,7,1,14,0.00
2013-5-3,69.5,54.6,41.7,54.5,45.7,40.9,97,76,40,30.33,30.26,12,2,19,0.00
2013-5-4,67.2,51.9,39.2,52.8,45.1,37.9,96,79,54,30.30,30.15,13,1,17,0.00
2013-5-5,65.8,53.0,39.2,52.2,46.0,36.9,94,78,58,30.20,30.11,5,1,15,0.00
2013-5-6,66.3,58.3,52.9,62.1,55.7,50.0,96,91,82,30.13,29.95,7,1,18,0.06
2013-5-7,69.8,60.8,59.5,65.6,59.5,58.4,97,95,85,29.98,29.88,5,1,11,0.62
2013-5-8,60.6,58.5,54.7,58.6,56.9,53.0,95,94,93,29.97,29.94,0,0,2,0.11
2013-5-9,77.1,63.1,53.0,63.3,57.6,51.6,97,84,55,30.01,29.93,9,2,14,0.01
2013-5-10,85.4,71.0,55.5,66.1,60.6,53.7,97,72,44,30.01,29.87,12,2,16,0.00
2013-5-11,79.4,71.3,63.2,69.5,64.3,60.7,96,80,63,29.91,29.71,15,2,18,0.50
2013-5-12,70.3,62.3,46.2,60.8,50.1,35.6,96,69,33,30.02,29.73,12,2,18,0.02
2013-5-13,61.8,50.6,37.6,44.4,36.6,30.6,96,63,34,30.16,30.02,12,2,18,0.00
2013-5-14,67.9,53.3,34.8,47.0,38.4,32.2,95,61,31,30.23,30.04,7,1,14,0.00
2013-5-15,87.7,71.1,55.9,67.1,56.3,42.3,78,60,48,30.04,29.73,11,4,18,0.00
2013-5-16,87.9,73.7,64.5,66.6,62.8,59.1,95,71,44,29.93,29.77,9,2,17,0.11
2013-5-17,82.8,70.9,59.7,66.0,59.7,52.4,97,71,40,30.15,29.90,6,1,11,0.09
2013-5-18,65.9,61.5,58.4,64.7,60.1,55.5,97,95,80,30.19,30.10,6,1,10,0.24
2013-5-19,74.9,67.6,62.1,70.1,65.1,61.2,97,92,83,30.17,30.06,6,0,7,0.00
2013-5-20,80.3,71.2,63.6,73.9,68.0,62.0,97,90,72,30.10,29.98,6,1,9,0.07
2013-5-21,82.3,73.0,67.2,73.9,69.2,65.9,96,88,72,30.00,29.88,6,1,11,0.00
2013-5-22,86.5,76.4,69.2,75.8,70.8,67.9,96,84,68,29.95,29.83,11,2,17,0.00
2013-5-23,81.9,73.7,68.8,71.3,68.5,65.4,95,84,66,29.90,29.75,10,2,20,0.02
2013-5-24,68.7,59.8,48.2,64.7,52.1,37.0,96,77,50,30.15,29.75,21,2,21,0.05
2013-5-25,69.3,54.8,42.4,44.5,38.3,33.7,76,56,30,30.23,30.09,13,4,23,0.00
2013-5-26,73.5,58.5,43.8,49.7,42.1,36.7,89,59,27,30.24,30.13,9,2,16,0.00
2013-5-27,73.9,60.5,44.5,59.4,50.4,41.8,95,72,41,30.27,30.16,4,0,9,0.00
2013-5-28,87.1,71.2,53.9,71.8,63.0,51.9,97,77,56,30.18,30.06,10,2,17,0.00
2013-5-29,89.8,78.3,66.7,72.3,67.3,63.4,90,70,51,30.14,30.08,8,3,14,0.00
2013-5-30,90.2,77.5,64.7,72.6,67.4,62.0,94,73,49,30.19,30.12,7,1,11,0.00
2013-5-31,90.6,77.1,63.7,72.6,66.6,62.0,96,73,48,30.16,30.03,8,2,14,0.00
2013-6-1,91.2,79.4,67.6,74.3,68.4,63.0,92,71,49,30.05,29.93,11,3,18,0.00
2013-6-2,87.9,76.9,68.2,73.8,68.8,65.3,95,77,60,29.95,29.85,14,4,18,0.30
2013-6-3,82.2,73.1,67.8,73.4,69.0,66.4,97,88,65,29.93,29.79,4,0,8,0.12
2013-6-4,77.5,68.3,57.0,66.9,53.2,44.0,91,62,32,30.12,29.93,5,1,11,0.00
2013-6-5,80.8,67.6,53.1,62.1,56.1,50.5,95,69,48,30.16,30.04,7,1,14,0.00
2013-6-6,78.8,67.9,57.3,68.6,61.6,52.2,91,80,68,30.06,29.81,17,3,21,0.01
2013-6-7,71.5,69.5,66.7,70.6,68.5,65.5,97,96,93,29.81,29.54,7,1,14,1.51
2013-6-8,80.5,70.4,65.1,72.2,67.0,63.6,98,90,68,30.07,29.74,4,0,7,0.18
2013-6-9,85.7,72.2,62.0,74.8,67.7,60.8,97,87,60,30.15,30.05,8,1,23,0.16
2013-6-10,83.0,74.0,68.5,76.8,71.4,67.2,97,92,77,30.07,29.80,12,2,16,1.38
2013-6-11,85.2,75.7,69.0,73.1,68.8,64.5,97,81,57,29.86,29.79,10,3,18,0.01
2013-6-12,90.4,78.5,66.6,77.4,70.5,63.5,93,78,57,29.88,29.78,8,1,15,0.00
2013-6-13,91.1,75.9,66.7,78.0,71.9,63.3,96,88,62,29.78,29.49,14,3,35,0.61
2013-6-14,78.0,68.5,60.6,64.3,59.1,55.7,92,73,51,29.97,29.61,11,2,17,0.00
2013-6-15,83.4,70.9,56.8,66.9,60.9,55.1,95,73,49,30.07,29.97,7,1,10,0.00
2013-6-16,87.4,75.4,62.2,73.7,67.6,59.8,95,78,58,30.01,29.90,8,2,14,0.00
2013-6-17,86.8,76.6,70.2,75.3,71.1,68.1,93,84,65,29.96,29.87,7,1,11,0.00
2013-6-18,78.1,71.3,64.8,73.8,69.1,63.3,97,93,86,29.92,29.74,7,0,25,0.97
2013-6-19,76.5,69.2,63.3,68.5,65.2,62.0,97,88,70,30.13,29.86,3,0,9,0.00
2013-6-20,80.0,70.0,61.2,64.6,61.1,54.7,97,75,50,30.25,30.13,5,1,11,0.00
2013-6-21,82.7,69.4,54.0,67.3,59.5,51.9,96,73,37,30.28,30.21,4,0,12,0.00
2013-6-22,86.0,73.3,62.0,73.6,67.4,60.0,96,83,61,30.24,30.14,11,1,14,0.00
2013-6-23,86.2,76.3,68.9,76.9,71.7,67.6,97,86,68,30.17,30.08,6,1,13,0.44
2013-6-24,89.7,78.4,70.7,79.2,72.8,68.9,96,84,63,30.12,30.02,8,1,11,0.00
2013-6-25,91.6,80.2,69.9,76.8,72.7,68.4,97,79,56,30.04,29.90,6,1,9,0.00
2013-6-26,91.5,77.6,69.2,78.6,72.0,67.7,96,84,59,29.92,29.82,9,1,20,0.14
2013-6-27,84.9,74.2,67.1,77.9,70.8,65.9,97,90,70,29.84,29.64,8,2,18,0.09
2013-6-28,90.6,79.9,70.8,77.1,72.3,68.1,93,79,61,29.65,29.46,10,2,19,0.00
2013-6-29,88.6,79.3,69.6,73.3,70.3,66.9,94,76,50,29.69,29.52,6,2,12,0.00
2013-6-30,86.5,77.2,69.7,77.1,72.8,68.1,96,87,67,29.84,29.68,5,1,15,0.15
2013-7-1,84.4,74.8,69.4,76.0,72.3,68.3,97,92,72,29.97,29.83,7,1,13,0.60
2013-7-2,80.3,74.7,71.6,76.3,72.8,70.4,97,94,84,30.17,29.97,7,1,14,0.25
2013-7-3,85.5,76.3,71.1,78.8,73.8,70.1,97,92,77,30.23,30.15,6,1,11,0.05
2013-7-4,89.2,79.8,72.7,77.2,73.6,70.7,97,83,63,30.26,30.15,6,1,13,0.01
2013-7-5,89.9,80.3,71.6,77.5,73.8,69.9,96,82,60,30.24,30.12,7,1,14,0.00
2013-7-6,90.1,80.8,73.2,79.8,74.4,71.6,96,82,61,30.19,30.08,7,2,14,0.00
2013-7-7,90.0,81.1,73.4,80.2,74.6,71.2,95,81,65,30.11,29.99,14,2,19,0.00
2013-7-8,87.1,77.4,71.1,76.1,72.2,69.3,96,85,63,30.11,30.04,7,1,11,0.05
2013-7-9,89.4,79.5,71.4,78.7,74.4,69.8,97,85,64,30.10,30.00,7,1,11,0.00
2013-7-10,92.1,79.0,71.8,80.2,74.3,70.3,96,86,64,30.02,29.87,16,1,18,0.64
2013-7-11,83.0,75.1,70.8,76.2,72.8,69.9,97,93,80,29.91,29.85,6,0,10,0.26
2013-7-12,77.0,71.7,66.2,72.1,69.5,65.0,97,93,84,30.03,29.86,11,0,11,1.20
2013-7-13,82.3,74.1,65.6,78.5,71.4,64.4,97,92,78,30.23,30.02,2,0,7,0.09
2013-7-14,88.8,79.3,71.0,77.8,73.9,69.8,97,85,63,30.32,30.24,5,0,9,0.01
2013-7-15,92.2,80.7,69.1,79.1,73.7,67.6,97,81,53,30.30,30.18,10,1,10,0.00
2013-7-16,92.3,82.3,73.2,82.0,76.1,71.3,96,83,65,30.21,30.13,8,1,12,0.00
2013-7-17,93.5,82.5,73.3,82.0,76.7,72.1,97,84,59,30.19,30.07,6,0,8,0.00
2013-7-18,94.0,83.9,73.6,81.6,77.4,72.4,97,82,60,30.11,30.00,5,1,8,0.00
2013-7-19,94.0,84.1,74.4,81.8,77.4,72.7,97,81,61,30.01,29.88,9,1,12,0.00
2013-7-20,92.8,82.4,74.2,80.8,76.1,71.3,93,82,64,29.91,29.82,7,2,18,0.01
2013-7-21,91.5,78.6,71.5,79.5,74.1,70.0,96,87,66,29.93,29.85,4,0,20,0.04
2013-7-22,89.5,77.9,70.4,78.0,73.5,69.5,97,87,67,29.91,29.76,5,1,11,0.00
2013-7-23,90.1,80.7,73.0,77.7,74.1,71.5,96,82,60,29.76,29.63,8,2,13,0.00
2013-7-24,85.5,77.4,69.5,75.4,71.1,64.7,96,82,63,29.85,29.65,5,0,11,0.00
2013-7-25,79.5,72.3,62.9,66.8,62.8,58.8,88,73,56,30.01,29.85,7,0,10,0.00
2013-7-26,83.8,70.8,58.5,68.5,62.7,56.8,96,78,52,30.09,30.00,4,1,8,0.00
2013-7-27,85.4,73.1,63.1,74.2,68.5,61.7,97,87,63,30.04,29.91,7,1,11,0.11
2013-7-28,87.4,74.3,68.7,75.2,70.0,67.2,97,87,61,29.96,29.86,4,1,15,0.08
2013-7-29,83.0,72.3,64.1,67.9,64.1,58.8,97,78,49,30.14,29.95,6,0,11,0.00
2013-7-30,83.2,70.7,58.0,69.0,63.0,56.3,97,78,54,30.22,30.13,3,0,6,0.00
2013-7-31,82.9,70.9,62.9,73.6,67.1,61.5,97,88,64,30.14,30.01,7,0,9,0.08
2013-8-1,82.9,72.1,66.2,75.4,69.7,65.0,97,92,72,30.01,29.81,6,1,18,0.96
2013-8-2,86.7,74.7,64.7,73.4,67.2,63.8,97,80,51,29.97,29.85,6,1,11,0.00
2013-8-3,82.7,73.8,66.3,72.9,68.6,64.4,96,85,60,29.96,29.90,4,0,10,0.00
2013-8-4,81.8,72.8,62.1,67.6,64.0,58.5,96,76,50,30.02,29.89,10,1,15,0.00
2013-8-5,80.9,69.3,57.9,65.9,60.5,55.9,93,76,47,30.09,30.00,5,1,7,0.00
2013-8-6,74.2,67.6,63.2,70.4,65.8,62.0,97,94,88,30.05,29.98,6,1,13,0.86
2013-8-7,86.2,75.6,67.5,76.4,70.8,66.3,97,86,67,30.06,29.99,8,1,15,0.01
2013-8-8,86.8,78.9,72.2,77.1,73.7,69.9,95,85,69,30.03,29.96,7,1,9,0.00
2013-8-9,91.6,82.6,74.4,81.2,76.2,72.9,95,82,65,29.97,29.86,14,3,21,0.00
2013-8-10,85.0,76.1,70.9,76.2,72.7,68.0,96,89,72,30.07,29.94,3,0,9,0.62
2013-8-11,81.6,74.3,69.9,76.3,72.0,69.0,97,93,82,30.10,29.99,2,0,7,0.04
2013-8-12,88.8,78.5,69.7,77.5,72.6,68.6,97,84,52,30.01,29.90,5,0,7,0.00
2013-8-13,86.0,77.3,69.9,77.1,73.3,68.3,96,88,67,29.89,29.73,8,1,14,0.77
2013-8-14,74.8,67.3,57.3,69.1,58.6,53.5,97,75,52,30.09,29.78,9,2,15,0.00
2013-8-15,76.4,64.3,54.2,65.0,58.0,52.2,96,81,53,30.17,30.08,5,0,8,0.00
2013-8-16,76.3,64.9,53.6,64.7,59.0,52.2,97,82,60,30.19,30.11,2,0,7,0.00
2013-8-17,78.3,67.6,57.1,68.1,62.7,55.7,97,85,66,30.22,30.16,3,0,13,0.01
2013-8-18,68.0,65.6,63.6,65.9,64.2,62.4,97,95,93,30.19,30.14,2,0,8,0.85
2013-8-19,72.6,67.5,63.1,69.8,65.9,62.2,97,95,90,30.18,30.07,5,0,7,0.07
2013-8-20,84.4,74.5,65.6,75.4,70.3,64.4,97,87,68,30.17,30.08,4,0,6,0.00
2013-8-21,88.0,76.6,66.7,77.3,72.0,65.5,97,87,66,30.19,30.06,5,0,8,0.01
2013-8-22,87.9,78.5,71.6,76.8,72.1,69.8,97,82,57,30.09,29.94,8,1,10,0.00
2013-8-23,77.5,69.8,65.4,72.6,68.2,64.2,97,95,84,30.10,29.92,6,0,12,1.48
2013-8-24,81.3,69.1,58.7,71.1,64.0,57.8,97,85,57,30.31,30.10,5,0,9,0.01
2013-8-25,79.2,67.8,58.4,68.6,61.3,56.7,97,81,54,30.40,30.27,5,0,8,0.00
2013-8-26,84.7,69.6,55.9,70.6,62.8,54.5,97,81,55,30.31,30.03,5,1,9,0.00
2013-8-27,88.4,74.9,64.7,76.8,69.3,61.3,94,84,63,30.03,29.89,8,1,14,0.01
2013-8-28,79.9,73.9,71.7,75.4,72.1,69.9,97,94,83,29.93,29.80,6,1,10,0.67
2013-8-29,83.6,74.1,69.0,76.8,71.8,68.1,97,93,75,30.00,29.79,2,0,6,0.01
2013-8-30,85.4,73.8,64.5,74.6,68.7,63.6,98,85,63,30.04,29.90,6,1,9,0.00
2013-8-31,88.1,76.0,67.9,77.9,71.7,66.6,96,87,71,29.93,29.80,7,1,14,0.01
2013-9-1,88.6,76.7,68.4,78.9,72.7,67.5,97,88,65,29.85,29.74,6,1,8,0.02
2013-9-2,88.5,77.5,71.6,77.6,73.2,70.5,97,88,66,29.81,29.73,5,1,8,0.01
2013-9-3,84.2,75.4,66.3,72.1,69.8,63.0,97,84,62,29.93,29.72,7,0,10,0.00
2013-9-4,81.8,69.9,59.9,67.5,62.7,57.9,96,79,56,30.08,29.93,8,1,12,0.00
2013-9-5,85.3,71.9,59.5,70.4,63.8,58.4,97,79,41,30.10,29.99,5,0,10,0.00
2013-9-6,76.7,65.6,56.4,62.7,57.8,53.8,95,77,50,30.22,30.10,5,0,9,0.00
2013-9-7,78.8,65.7,53.7,66.9,60.7,52.9,97,85,66,30.13,29.94,7,1,10,0.00
2013-9-8,86.4,72.1,59.8,73.0,66.0,59.0,97,83,54,29.99,29.87,7,0,9,0.00
2013-9-9,78.6,71.4,64.8,71.5,66.3,58.8,95,84,71,30.17,29.99,3,0,8,0.00
2013-9-10,89.5,76.8,67.7,76.9,72.2,66.8,97,87,64,30.18,30.09,7,1,10,0.00
2013-9-11,91.1,78.5,68.3,76.7,72.0,67.4,97,82,60,30.14,30.01,6,1,11,0.00
2013-9-12,90.0,76.6,68.4,77.9,70.8,66.4,97,83,64,30.01,29.74,10,1,18,0.22
2013-9-13,78.6,70.1,61.4,68.5,62.7,53.3,97,79,51,29.91,29.70,8,1,16,0.01
2013-9-14,69.4,59.6,49.9,54.6,50.9,48.5,95,74,50,30.15,29.91,7,1,15,0.00
2013-9-15,77.5,60.7,44.8,62.0,53.4,43.7,97,79,53,30.24,30.09,7,1,10,0.00
2013-9-16,73.3,63.2,54.9,66.8,59.5,53.5,96,88,74,30.20,30.06,6,1,11,0.00
2013-9-17,69.3,57.7,46.3,55.0,51.4,44.7,97,81,49,30.39,30.20,7,0,11,0.00
2013-9-18,71.5,55.2,40.8,55.8,48.3,39.8,97,81,46,30.33,30.18,6,0,10,0.00
2013-9-19,76.5,61.3,47.0,62.0,55.3,46.2,97,83,56,30.19,30.08,6,0,9,0.00
2013-9-20,78.6,65.2,52.7,66.1,60.0,51.9,97,85,61,30.09,29.95,7,0,9,0.00
2013-9-21,74.0,65.2,56.1,67.4,62.4,55.3,97,91,69,29.97,29.69,11,1,20,1.03
2013-9-22,73.9,63.3,55.4,62.0,58.4,52.8,98,86,55,29.93,29.72,11,1,13,0.01
2013-9-23,66.9,56.0,47.8,53.3,50.0,46.6,96,82,56,30.08,29.92,8,1,12,0.00
2013-9-24,71.5,56.1,44.2,57.3,50.3,43.2,97,83,52,30.10,29.95,6,0,9,0.00
2013-9-25,74.9,59.3,45.6,61.4,54.1,44.8,97,85,51,29.97,29.87,5,0,8,0.00
2013-9-26,76.7,62.8,52.2,62.7,56.6,51.4,97,82,54,30.05,29.89,3,0,9,0.00
2013-9-27,72.9,59.1,49.3,62.0,55.5,48.5,97,89,65,30.21,30.05,4,0,10,0.00
2013-9-28,69.2,59.7,49.0,60.2,55.9,48.2,97,88,70,30.28,30.19,3,0,9,0.00
2013-9-29,72.4,59.7,49.9,62.2,55.8,49.1,97,88,65,30.19,30.04,3,0,10,0.00
2013-9-30,74.5,59.7,47.3,60.2,54.2,46.5,97,84,52,30.09,29.98,4,0,7,0.00
2013-10-1,81.9,64.6,52.8,65.2,58.8,51.7,97,83,51,30.08,29.98,5,0,7,0.01
2013-10-2,84.3,67.5,54.5,65.7,60.4,53.7,97,81,48,30.09,30.01,5,0,8,0.00
2013-10-3,82.3,68.0,55.9,69.1,62.9,55.1,97,85,55,30.10,30.03,2,0,5,0.00
2013-10-4,86.1,71.0,59.7,70.8,65.3,58.8,97,84,55,30.08,30.00,5,0,7,0.00
2013-10-5,88.2,72.9,60.7,71.9,66.4,59.8,97,83,53,30.07,29.99,9,0,9,0.00
2013-10-6,87.3,73.4,63.3,70.5,66.1,62.4,97,80,52,30.02,29.91,6,1,15,0.00
2013-10-7,76.6,68.5,55.5,71.4,66.2,54.7,97,93,84,30.03,29.81,11,1,25,0.72
2013-10-8,64.3,54.6,48.5,53.8,50.9,47.6,97,88,66,30.25,30.03,4,0,8,0.00
2013-10-9,58.7,55.0,52.6,56.1,52.9,50.3,97,93,87,30.25,30.14,8,1,13,0.55
2013-10-10,56.8,55.0,52.9,56.0,54.1,52.1,97,97,96,30.13,29.93,9,1,12,0.43
2013-10-11,63.2,59.3,56.6,61.3,58.4,55.8,97,96,93,29.95,29.89,15,2,15,0.06
2013-10-12,64.6,62.5,60.5,63.7,61.7,59.7,98,97,96,30.11,29.93,4,0,7,0.12
2013-10-13,62.9,61.5,59.5,62.3,60.8,58.7,98,97,97,30.27,30.10,2,0,8,0.14
2013-10-14,67.9,59.2,51.4,61.5,57.2,50.6,98,93,78,30.30,30.20,3,0,8,0.01
2013-10-15,71.3,59.4,49.2,62.5,56.0,48.7,98,89,67,30.21,30.07,4,0,8,0.01
2013-10-16,71.2,63.8,57.5,65.1,61.5,56.7,98,92,79,30.07,29.92,5,0,7,0.00
2013-10-17,76.0,66.6,60.0,67.1,63.0,59.2,98,89,73,29.92,29.75,9,1,14,0.02
2013-10-18,68.4,58.0,48.7,62.3,51.4,47.3,97,81,48,30.02,29.81,5,1,10,0.00
2013-10-19,62.1,55.1,47.0,60.7,54.1,46.1,97,96,93,29.99,29.80,3,0,9,0.01
2013-10-20,62.7,51.4,39.6,55.2,43.8,37.7,97,78,42,30.11,29.86,7,1,11,0.01
2013-10-21,67.3,50.9,36.5,49.4,43.5,35.7,97,79,43,30.17,29.98,8,1,11,0.00
2013-10-22,72.4,57.2,47.4,58.0,51.4,45.5,93,82,51,29.97,29.79,8,1,10,0.00
2013-10-23,59.4,49.0,40.0,49.9,44.4,38.7,96,85,55,29.93,29.67,8,1,17,0.22
2013-10-24,54.2,43.9,34.5,40.3,35.9,33.2,95,76,49,30.16,29.93,9,2,15,0.01
2013-10-25,55.3,41.4,29.7,35.5,31.7,27.9,93,72,36,30.34,30.16,11,2,14,0.00
2013-10-26,57.7,43.0,28.3,39.0,32.5,27.0,96,70,36,30.33,29.98,13,2,18,0.00
2013-10-27,63.1,50.2,39.3,45.0,39.6,35.3,94,69,43,30.13,29.98,7,1,16,0.00
2013-10-28,66.4,48.3,35.2,50.5,42.7,34.2,97,83,50,30.26,30.12,5,0,8,0.00
2013-10-29,67.1,53.5,44.3,51.2,47.3,43.0,96,82,50,30.37,30.26,5,0,7,0.00
2013-10-30,67.6,56.1,45.4,60.1,53.0,44.0,97,90,74,30.32,30.15,7,1,11,0.01
2013-10-31,71.5,62.6,52.2,62.5,57.7,51.1,97,85,70,30.18,29.83,7,1,15,0.00
2013-11-1,73.0,68.1,63.5,64.9,63.0,61.2,95,84,71,29.70,29.62,13,4,18,0.02
2013-11-2,72.6,60.7,50.4,62.0,52.6,43.1,97,78,42,29.87,29.63,11,1,14,0.00
2013-11-3,59.9,47.0,35.4,44.3,35.8,28.5,96,69,33,30.40,29.87,8,1,21,0.00
2013-11-4,49.5,38.9,30.2,33.3,30.0,26.8,88,72,45,30.62,30.41,7,0,9,0.00
2013-11-5,55.9,45.7,34.6,48.0,40.1,30.9,91,81,68,30.60,30.46,3,0,8,0.00
2013-11-6,70.4,56.4,43.3,55.6,50.5,41.1,96,82,59,30.46,30.09,6,1,10,0.00
2013-11-7,69.4,56.2,38.7,62.2,52.5,34.9,97,88,71,30.09,29.87,11,2,18,0.02
2013-11-8,54.9,41.2,29.6,35.6,30.3,25.5,92,68,35,30.32,30.09,11,2,19,0.00
2013-11-9,57.8,42.2,26.8,35.0,30.1,25.0,94,66,36,30.37,30.08,10,2,17,0.00
2013-11-10,68.6,52.4,40.4,40.6,32.8,27.1,72,50,22,30.25,29.96,16,4,22,0.00
2013-11-11,58.9,45.3,31.2,35.2,31.3,27.2,86,60,36,30.33,30.07,8,2,12,0.00
2013-11-12,49.1,42.0,29.2,39.9,27.5,16.9,80,57,43,30.41,29.97,12,3,21,0.00
2013-11-13,44.1,32.8,24.8,21.9,19.6,17.4,79,60,37,30.51,30.41,11,2,19,0.00
2013-11-14,59.7,39.6,23.3,25.5,21.8,18.9,85,54,24,30.41,30.26,9,2,11,0.00
2013-11-15,60.1,46.9,31.9,46.2,30.7,24.5,91,55,28,30.30,30.19,8,2,12,0.03
2013-11-16,54.6,51.0,47.7,53.2,49.8,45.7,97,96,91,30.30,30.23,3,0,5,0.38
2013-11-17,65.8,58.0,50.1,61.0,55.9,49.3,97,93,82,30.23,29.80,6,1,10,0.09
2013-11-18,69.7,61.2,48.3,64.7,45.6,29.4,96,62,26,29.93,29.72,13,4,25,0.21
2013-11-19,50.8,43.3,35.3,30.7,29.3,28.0,81,59,43,30.36,29.93,10,3,21,0.00
2013-11-20,49.0,37.7,30.3,34.3,30.1,26.9,94,75,51,30.53,30.36,9,1,13,0.00
2013-11-21,54.7,43.7,32.6,45.0,39.0,31.1,95,84,67,30.54,30.40,4,0,8,0.00
2013-11-22,68.7,56.8,43.8,57.7,51.2,41.8,93,82,67,30.40,30.00,12,4,20,0.00
2013-11-23,60.9,49.3,38.3,56.7,35.7,21.5,87,61,36,30.17,30.00,14,3,23,0.00
2013-11-24,37.5,29.0,21.7,24.7,9.2,3.3,65,44,28,30.55,30.17,24,5,25,0.00
2013-11-25,37.4,26.5,16.8,17.2,12.7,9.2,83,58,34,30.59,30.43,10,2,14,0.00
2013-11-26,58.9,39.4,32.8,58.0,37.2,24.4,97,92,67,30.30,29.56,12,2,21,1.11
2013-11-27,40.7,37.7,31.6,39.9,35.8,21.3,97,93,64,30.07,29.50,11,3,19,1.01
2013-11-28,40.1,30.1,21.8,24.0,20.6,17.0,89,69,45,30.48,30.09,12,1,18,0.00
2013-11-29,44.5,30.9,20.7,28.0,23.1,19.0,94,75,43,30.70,30.46,7,1,14,0.00
2013-11-30,41.9,30.9,23.1,30.8,24.8,20.6,90,79,56,30.70,30.39,3,0,6,0.00
2013-12-1,52.3,34.3,21.9,33.7,27.8,20.4,95,80,46,30.38,30.02,6,1,8,0.00
2013-12-2,55.6,41.0,28.1,41.7,34.4,26.9,96,79,50,30.02,29.86,5,0,8,0.00
2013-12-3,58.4,44.1,33.5,43.6,38.7,32.2,96,83,55,29.99,29.87,7,1,11,0.00
2013-12-4,60.5,51.3,43.5,54.0,47.9,41.0,95,88,78,30.08,29.99,6,1,10,0.00
2013-12-5,65.3,59.8,52.3,62.5,58.1,51.2,97,94,88,30.08,29.96,11,4,15,0.00
2013-12-6,67.2,55.4,42.8,64.8,53.9,41.7,97,95,82,30.11,29.90,9,3,16,0.22
2013-12-7,43.6,38.3,28.9,41.6,34.8,26.5,97,87,72,30.53,30.09,6,2,13,0.37
2013-12-8,32.0,31.0,28.6,31.0,28.5,25.0,96,91,76,30.56,30.29,4,1,10,0.02
2013-12-9,38.0,34.8,32.0,37.2,33.9,31.0,97,97,96,30.30,30.04,6,1,10,0.14
2013-12-10,36.9,34.0,27.2,36.1,33.2,26.2,97,97,96,30.25,29.99,4,1,7,0.24
2013-12-11,44.9,31.9,22.6,30.8,25.8,21.1,96,80,51,30.42,30.25,8,2,12,0.00
2013-12-12,36.6,29.2,24.8,25.1,20.7,13.8,91,72,47,30.43,30.25,6,2,10,0.00
2013-12-13,47.2,33.7,24.6,27.5,20.2,13.8,82,59,36,30.33,30.23,9,3,20,0.00
2013-12-14,40.5,35.8,31.4,39.5,32.8,27.3,97,89,76,30.31,29.73,8,1,13,0.49
2013-12-15,52.8,41.4,31.9,43.3,34.4,26.9,97,78,49,29.98,29.66,12,4,20,0.00
2013-12-16,44.5,35.4,28.3,34.3,30.0,25.7,93,81,60,30.16,29.97,6,2,11,0.00
2013-12-17,52.6,38.6,27.6,41.3,34.6,26.4,96,87,61,30.13,29.91,6,1,14,0.32
2013-12-18,44.1,35.3,28.8,36.7,29.5,24.7,97,81,51,30.23,29.97,17,2,17,0.00
2013-12-19,62.0,44.7,27.5,34.0,28.7,24.2,89,57,32,30.22,30.13,17,4,22,0.00
2013-12-20,64.8,53.2,43.6,52.1,42.3,30.5,84,67,49,30.16,30.02,16,6,26,0.00
2013-12-21,70.7,61.7,52.8,62.3,55.2,48.4,91,80,65,30.07,29.96,17,6,27,0.00
2013-12-22,72.2,66.2,61.7,67.0,63.0,60.0,96,90,82,30.03,29.89,17,6,26,0.52
2013-12-23,64.4,56.9,40.6,63.5,54.9,32.0,97,93,71,30.20,29.94,6,2,16,0.30
2013-12-24,42.5,37.5,30.6,32.1,28.5,25.5,82,70,55,30.28,30.19,10,3,17,0.00
2013-12-25,34.1,25.4,17.8,18.8,14.1,10.6,82,63,43,30.58,30.40,4,1,11,0.00
2013-12-26,48.6,32.2,20.2,27.9,23.5,17.5,93,73,42,30.40,30.23,11,2,15,0.00
2013-12-27,51.2,34.9,22.9,29.6,24.1,20.7,93,68,36,30.45,30.34,7,1,11,0.00
2013-12-28,58.8,42.1,27.1,32.9,27.8,22.5,85,60,33,30.36,30.14,12,4,17,0.00
2013-12-29,50.5,45.2,40.7,49.4,42.7,31.8,97,92,53,30.14,29.59,10,3,16,1.23
2013-12-30,50.6,41.6,36.4,44.7,37.3,29.9,96,85,70,30.16,29.84,7,2,9,0.01
2013-12-31,49.7,37.3,27.1,35.8,26.9,20.6,92,68,36,30.34,30.15,14,3,24,0.00
2014-1-1,49.3,34.7,24.2,32.9,27.1,21.2,91,75,51,30.42,30.14,8,1,14,0.00
2014-1-2,43.1,33.6,28.2,36.0,30.3,25.0,95,88,67,30.13,29.58,4,0,7,0.19